Time;durP1;ratioP1;P1;durP2;ratioP2;P2;SDS_P1;SDS_P2;PMS_P1;PMS_P2;Temp;Humidity;BMP_temperature;BMP_pressure;BME280_temperature;BME280_humidity;BME280_pressure;Samples;Min_cycle;Max_cycle;Signal;HPM_P1;HPM_P2
2023/08/13 00:02:07;;;;;;;8.05;3.30;;;;;;;18.42;75.13;101700.69;7386366;19;20022;-59
2023/08/13 00:04:34;;;;;;;9.85;3.05;;;;;;;18.44;75.24;101688.00;7389817;19;20014;-60
2023/08/13 00:07:02;;;;;;;9.77;3.08;;;;;;;18.23;75.89;101690.81;7389078;19;20018;-59
2023/08/13 00:09:30;;;;;;;11.38;3.13;;;;;;;18.32;75.88;101694.50;7394682;19;20039;-60
2023/08/13 00:11:58;;;;;;;10.40;3.58;;;;;;;18.30;75.85;101693.78;7394561;19;20015;-58
2023/08/13 00:14:25;;;;;;;9.20;3.67;;;;;;;18.37;75.28;101692.25;7396542;19;20506;-59
2023/08/13 00:16:53;;;;;;;10.48;3.28;;;;;;;18.38;75.22;101694.78;7396390;19;20022;-60
2023/08/13 00:19:20;;;;;;;9.63;2.92;;;;;;;18.41;74.88;101701.69;7396939;19;20018;-59
2023/08/13 00:21:47;;;;;;;8.63;3.05;;;;;;;18.34;75.81;101701.41;7393512;19;20086;-59
2023/08/13 00:24:33;;;;;;;12.85;3.88;;;;;;;18.40;75.05;101700.00;7395431;19;20536;-60
2023/08/13 00:27:00;;;;;;;9.65;3.80;;;;;;;18.56;74.15;101707.50;7394386;19;20050;-59
2023/08/13 00:29:28;;;;;;;8.93;2.92;;;;;;;18.63;73.59;101696.06;7399216;19;20026;-60
2023/08/13 00:31:56;;;;;;;12.70;4.07;;;;;;;18.68;73.59;101696.47;7394382;19;20026;-60
2023/08/13 00:34:23;;;;;;;10.65;3.72;;;;;;;18.77;72.77;101699.31;7396584;19;20014;-60
2023/08/13 00:36:51;;;;;;;10.45;3.95;;;;;;;18.81;72.55;101698.91;7394085;19;20074;-60
2023/08/13 00:39:18;;;;;;;12.85;3.95;;;;;;;18.81;72.76;101690.84;7394774;19;20022;-58
2023/08/13 00:41:46;;;;;;;13.57;3.72;;;;;;;18.77;73.54;101701.97;7395199;19;20014;-59
2023/08/13 00:44:13;;;;;;;10.18;3.60;;;;;;;18.65;73.92;101709.31;7394580;19;20043;-60
2023/08/13 00:46:40;;;;;;;13.20;3.90;;;;;;;18.70;73.56;101699.03;7393887;19;20018;-60
2023/08/13 00:49:08;;;;;;;9.88;3.65;;;;;;;18.73;73.40;101704.97;7393804;19;20007;-60
2023/08/13 00:51:37;;;;;;;9.25;3.08;;;;;;;18.69;74.32;101703.50;7393296;19;20018;-59
2023/08/13 00:54:07;;;;;;;11.00;3.55;;;;;;;18.78;73.53;101706.38;7395397;19;20018;-60
2023/08/13 00:56:36;;;;;;;11.68;3.90;;;;;;;18.70;74.04;101716.00;7395271;19;20023;-60
2023/08/13 00:59:04;;;;;;;11.45;4.20;;;;;;;18.75;72.94;101719.09;7395320;19;20018;-59
2023/08/13 01:01:33;;;;;;;8.30;3.03;;;;;;;18.71;72.85;101720.38;7394244;19;20034;-58
2023/08/13 01:04:00;;;;;;;13.50;3.72;;;;;;;18.68;72.81;101722.44;7395457;19;20120;-59
2023/08/13 01:06:51;;;;;;;11.85;3.78;;;;;;;18.83;72.04;101722.91;7394042;19;20033;-60
2023/08/13 01:09:53;;;;;;;9.57;3.30;;;;;;;18.75;72.09;101712.88;7394043;19;20015;-60
2023/08/13 01:12:42;;;;;;;8.68;3.20;;;;;;;18.74;72.16;101716.56;7390644;19;20540;-59
2023/08/13 01:15:43;;;;;;;9.77;3.40;;;;;;;18.74;71.71;101717.41;7394686;19;20476;-59
2023/08/13 01:18:12;;;;;;;9.82;3.30;;;;;;;18.73;72.30;101710.34;7392930;19;20035;-59
2023/08/13 01:20:43;;;;;;;12.15;3.38;;;;;;;18.83;71.36;101714.84;7394175;19;20571;-59
2023/08/13 01:23:10;;;;;;;11.80;3.65;;;;;;;18.79;71.52;101718.81;7394544;19;20033;-60
2023/08/13 01:25:42;;;;;;;13.63;3.35;;;;;;;18.83;71.71;101714.84;7393748;19;20015;-59
2023/08/13 01:28:29;;;;;;;10.40;3.60;;;;;;;18.90;71.35;101714.13;7393372;19;20039;-59
2023/08/13 01:31:24;;;;;;;7.93;3.50;;;;;;;18.94;70.83;101710.16;7393110;19;20018;-60
2023/08/13 01:33:52;;;;;;;8.48;3.03;;;;;;;18.86;71.61;101717.25;7393955;19;20014;-59
2023/08/13 01:36:22;;;;;;;14.20;3.80;;;;;;;18.85;71.33;101715.53;7393967;19;20067;-61
2023/08/13 01:38:50;;;;;;;10.93;3.15;;;;;;;18.87;71.45;101709.03;7392327;19;20026;-59
2023/08/13 01:41:17;;;;;;;12.10;3.35;;;;;;;18.88;71.54;101709.88;7393750;19;20018;-60
2023/08/13 01:43:45;;;;;;;10.35;3.50;;;;;;;18.90;71.40;101718.66;7393805;19;20026;-60
2023/08/13 01:46:12;;;;;;;8.13;2.63;;;;;;;18.94;71.15;101720.91;7393304;19;20463;-60
2023/08/13 01:48:40;;;;;;;7.47;3.03;;;;;;;18.98;70.98;101725.00;7394194;19;20014;-60
2023/08/13 01:51:07;;;;;;;9.35;2.90;;;;;;;18.89;71.26;101716.97;7391777;19;20041;-59
2023/08/13 01:53:34;;;;;;;10.02;2.58;;;;;;;18.95;71.20;101727.13;7394141;19;20018;-61
2023/08/13 01:56:02;;;;;;;8.45;2.67;;;;;;;19.00;71.16;101714.09;7393085;19;20052;-60
2023/08/13 01:58:29;;;;;;;13.05;3.38;;;;;;;19.06;71.09;101723.44;7393936;19;20040;-59
2023/08/13 02:00:56;;;;;;;11.07;2.97;;;;;;;18.99;70.94;101723.16;7392524;19;20040;-59
2023/08/13 02:03:24;;;;;;;12.63;3.35;;;;;;;18.95;71.54;101725.28;7393899;19;20014;-59
2023/08/13 02:05:51;;;;;;;10.32;3.20;;;;;;;18.95;71.43;101729.78;7392566;19;20019;-59
2023/08/13 02:08:19;;;;;;;8.65;2.70;;;;;;;18.94;71.29;101730.78;7393643;19;20028;-60
2023/08/13 02:10:46;;;;;;;7.75;2.75;;;;;;;18.93;71.27;101731.78;7392884;19;20064;-60
2023/08/13 02:13:13;;;;;;;9.60;3.15;;;;;;;18.97;71.09;101733.19;7391775;19;20025;-59
2023/08/13 02:15:41;;;;;;;10.20;2.95;;;;;;;18.96;70.85;101727.00;7390895;19;20018;-59
2023/08/13 02:18:08;;;;;;;9.98;2.75;;;;;;;18.95;70.74;101727.97;7393378;19;20362;-60
2023/08/13 02:20:35;;;;;;;11.73;3.15;;;;;;;18.95;70.17;101730.63;7392517;19;20379;-58
2023/08/13 02:23:03;;;;;;;9.93;3.10;;;;;;;19.04;69.67;101722.72;7392678;19;20029;-61
2023/08/13 02:25:30;;;;;;;9.85;3.00;;;;;;;19.07;69.21;101731.31;7391828;19;20026;-60
2023/08/13 02:27:58;;;;;;;10.85;2.95;;;;;;;19.13;68.86;101722.69;7393097;19;20011;-58
2023/08/13 02:30:25;;;;;;;9.93;3.10;;;;;;;19.17;68.83;101726.78;7396825;19;20051;-61
2023/08/13 02:32:52;;;;;;;9.95;2.83;;;;;;;19.21;68.28;101732.72;7390290;19;20029;-60
2023/08/13 02:35:20;;;;;;;5.50;2.40;;;;;;;19.20;68.20;101725.66;7392919;19;20032;-59
2023/08/13 02:37:47;;;;;;;11.60;3.42;;;;;;;19.22;68.32;101727.19;7391936;19;20011;-59
2023/08/13 02:40:15;;;;;;;7.55;2.67;;;;;;;19.23;68.22;101719.97;7392823;19;20022;-60
2023/08/13 02:42:42;;;;;;;9.18;2.90;;;;;;;19.22;68.46;101721.81;7390265;19;20358;-62
2023/08/13 02:45:10;;;;;;;6.65;2.65;;;;;;;19.18;68.54;101724.94;7392629;19;20022;-61
2023/08/13 02:47:37;;;;;;;11.55;3.17;;;;;;;19.15;69.71;101722.53;7391687;19;20022;-58
2023/08/13 02:50:06;;;;;;;12.00;2.70;;;;;;;19.13;69.84;101727.22;7391813;19;20025;-59
2023/08/13 02:52:34;;;;;;;9.27;2.80;;;;;;;19.09;69.63;101723.97;7390670;19;20047;-58
2023/08/13 02:55:01;;;;;;;9.00;2.80;;;;;;;19.12;69.65;101714.81;7389970;19;20112;-61
2023/08/13 02:57:29;;;;;;;8.80;3.03;;;;;;;19.14;69.61;101718.16;7390211;19;20031;-56
2023/08/13 02:59:56;;;;;;;12.57;3.17;;;;;;;19.13;69.51;101716.47;7392197;19;20039;-56
2023/08/13 03:02:24;;;;;;;10.00;3.17;;;;;;;19.07;69.73;101725.94;7390313;19;20018;-56
2023/08/13 03:04:52;;;;;;;9.98;2.95;;;;;;;19.04;69.93;101720.91;7391876;19;20035;-59
2023/08/13 03:07:19;;;;;;;10.18;3.20;;;;;;;19.00;70.37;101716.78;7391160;19;20022;-61
2023/08/13 03:09:46;;;;;;;9.60;2.65;;;;;;;19.02;70.27;101714.81;7390021;19;20022;-61
2023/08/13 03:12:14;;;;;;;12.93;3.38;;;;;;;19.07;70.24;101715.22;7390483;19;20022;-60
2023/08/13 03:14:42;;;;;;;10.65;3.20;;;;;;;19.01;70.22;101721.19;7391900;19;20014;-59
2023/08/13 03:17:09;;;;;;;10.80;3.08;;;;;;;18.92;70.68;101719.34;7390826;19;20092;-59
2023/08/13 03:19:36;;;;;;;8.93;3.10;;;;;;;18.97;70.81;101723.31;7393368;19;20056;-58
2023/08/13 03:22:04;;;;;;;9.90;3.10;;;;;;;18.97;70.41;101726.00;7389380;19;20039;-58
2023/08/13 03:24:31;;;;;;;11.05;3.55;;;;;;;19.02;70.63;101730.91;7392452;19;20019;-65
2023/08/13 03:26:59;;;;;;;9.90;3.28;;;;;;;19.03;70.61;101723.72;7393324;19;20049;-56
2023/08/13 03:29:27;;;;;;;9.52;2.90;;;;;;;19.03;70.69;101729.06;7393639;19;20014;-58
2023/08/13 03:31:54;;;;;;;10.35;2.80;;;;;;;19.02;70.48;101722.03;7389763;19;20035;-58
2023/08/13 03:34:21;;;;;;;8.68;3.00;;;;;;;19.04;70.37;101723.59;7391080;19;20370;-58
2023/08/13 03:36:49;;;;;;;8.40;3.08;;;;;;;19.02;70.39;101722.03;7389308;19;20014;-58
2023/08/13 03:39:16;;;;;;;9.50;2.90;;;;;;;19.03;70.37;101724.56;7390649;19;20056;-58
2023/08/13 03:41:44;;;;;;;9.93;3.10;;;;;;;19.01;70.59;101720.34;7387941;19;20522;-58
2023/08/13 03:44:11;;;;;;;10.20;3.08;;;;;;;18.98;70.71;101724.16;7393692;19;20379;-58
2023/08/13 03:46:38;;;;;;;9.90;3.30;;;;;;;18.98;70.48;101724.16;7395856;19;20078;-58
2023/08/13 03:49:06;;;;;;;9.25;3.20;;;;;;;18.93;70.86;101719.22;7398323;19;20015;-58
2023/08/13 03:51:33;;;;;;;9.52;3.08;;;;;;;18.97;71.09;101717.94;7396755;19;20480;-57
2023/08/13 03:54:00;;;;;;;9.50;3.00;;;;;;;18.97;70.84;101715.25;7397290;19;20011;-58
2023/08/13 03:56:35;;;;;;;12.02;3.33;;;;;;;18.91;71.08;101717.66;7395541;19;20507;-58
2023/08/13 03:59:03;;;;;;;13.27;3.30;;;;;;;18.85;71.20;101720.91;7397864;19;20520;-57
2023/08/13 04:01:30;;;;;;;13.55;3.83;;;;;;;18.90;70.73;101713.28;7396643;19;20048;-57
2023/08/13 04:03:58;;;;;;;7.38;3.22;;;;;;;18.88;71.16;101713.41;7397654;19;20033;-57
2023/08/13 04:06:25;;;;;;;13.50;3.47;;;;;;;18.88;70.79;101731.34;7397231;19;20096;-57
2023/08/13 04:08:53;;;;;;;10.38;3.50;;;;;;;18.86;70.99;101720.78;7397518;19;20043;-57
2023/08/13 04:11:20;;;;;;;8.43;3.15;;;;;;;18.87;70.83;101733.19;7394637;19;20036;-57
2023/08/13 04:13:47;;;;;;;10.45;3.42;;;;;;;18.86;70.65;101733.34;7395349;19;20044;-57
2023/08/13 04:16:15;;;;;;;10.77;3.65;;;;;;;18.84;70.90;101727.25;7396080;19;20018;-56
2023/08/13 04:18:42;;;;;;;9.75;3.42;;;;;;;18.75;71.16;101729.81;7397413;19;20011;-57
2023/08/13 04:21:10;;;;;;;8.32;3.17;;;;;;;18.79;70.69;101734.91;7395862;19;20014;-57
2023/08/13 04:23:37;;;;;;;12.13;3.55;;;;;;;18.73;70.84;101729.13;7396889;19;20035;-58
2023/08/13 04:26:05;;;;;;;8.00;3.35;;;;;;;18.72;71.01;101729.25;7395913;19;20022;-58
2023/08/13 04:28:33;;;;;;;10.40;3.88;;;;;;;18.75;71.08;101727.13;7397515;19;20011;-58
2023/08/13 04:31:01;;;;;;;8.73;3.55;;;;;;;18.66;71.17;101736.03;7394311;19;20442;-58
2023/08/13 04:33:28;;;;;;;8.27;3.45;;;;;;;18.62;71.35;101739.09;7394817;19;20021;-58
2023/08/13 04:35:56;;;;;;;12.90;3.83;;;;;;;18.62;70.89;101734.63;7395849;19;20018;-59
2023/08/13 04:38:23;;;;;;;10.77;3.78;;;;;;;18.65;71.05;101744.19;7395402;19;20047;-58
2023/08/13 04:40:50;;;;;;;9.77;3.40;;;;;;;18.59;71.46;101740.25;7395497;19;20018;-59
2023/08/13 04:43:18;;;;;;;8.68;3.50;;;;;;;18.57;71.58;101738.69;7395681;19;20018;-58
2023/08/13 04:45:46;;;;;;;13.90;4.85;;;;;;;18.57;71.54;101747.59;7395597;19;20027;-58
2023/08/13 04:48:18;;;;;;;13.27;5.40;;;;;;;18.50;71.89;101738.41;7395896;19;20034;-58
2023/08/13 04:50:45;;;;;;;9.52;4.50;;;;;;;18.55;71.86;101744.22;7394803;19;20019;-58
2023/08/13 04:53:14;;;;;;;10.35;3.83;;;;;;;18.57;71.58;101752.09;7394478;19;20019;-58
2023/08/13 04:55:41;;;;;;;13.00;4.38;;;;;;;18.49;71.87;101748.28;7394052;19;20026;-58
2023/08/13 04:58:09;;;;;;;9.95;3.95;;;;;;;18.58;71.44;101746.59;7395825;19;20018;-58
2023/08/13 05:00:37;;;;;;;12.65;3.50;;;;;;;18.56;71.44;101751.25;7395194;19;20010;-58
2023/08/13 05:03:04;;;;;;;11.23;3.70;;;;;;;18.56;71.87;101743.22;7395580;19;20015;-58
2023/08/13 05:05:31;;;;;;;12.20;4.25;;;;;;;18.55;71.73;101736.16;7395288;19;20091;-59
2023/08/13 05:07:59;;;;;;;10.50;3.53;;;;;;;18.58;71.38;101737.69;7394308;19;20014;-58
2023/08/13 05:10:26;;;;;;;10.52;3.75;;;;;;;18.59;71.38;101728.69;7393582;19;20058;-58
2023/08/13 05:12:54;;;;;;;10.25;3.80;;;;;;;18.60;70.95;101733.03;7392741;19;20011;-58
2023/08/13 05:15:21;;;;;;;10.63;3.47;;;;;;;18.55;71.42;101735.31;7395286;19;20022;-58
2023/08/13 05:17:48;;;;;;;9.88;3.60;;;;;;;18.62;71.11;101731.94;7395388;19;20046;-58
2023/08/13 05:20:16;;;;;;;9.57;3.15;;;;;;;18.62;71.14;101739.09;7395455;19;20094;-57
2023/08/13 05:22:43;;;;;;;9.38;3.45;;;;;;;18.65;70.70;101739.66;7393427;19;20022;-59
2023/08/13 05:25:10;;;;;;;11.23;3.78;;;;;;;18.66;70.70;101736.03;7395015;19;20046;-58
2023/08/13 05:27:38;;;;;;;12.75;3.40;;;;;;;18.73;70.65;101734.50;7394480;19;20022;-58
2023/08/13 05:30:06;;;;;;;9.75;3.17;;;;;;;18.68;70.55;101725.13;7398577;19;20043;-58
2023/08/13 05:32:33;;;;;;;10.32;3.30;;;;;;;18.63;71.01;101727.41;7392900;19;20027;-57
2023/08/13 05:35:01;;;;;;;11.23;3.67;;;;;;;18.67;70.43;101732.34;7394336;19;20522;-58
2023/08/13 05:37:29;;;;;;;9.50;3.38;;;;;;;18.64;70.67;101734.47;7394059;19;20098;-58
2023/08/13 05:39:56;;;;;;;13.93;3.70;;;;;;;18.67;70.47;101726.13;7394787;19;20018;-58
2023/08/13 05:42:24;;;;;;;9.60;3.25;;;;;;;18.69;70.38;101732.19;7391207;19;20015;-59
2023/08/13 05:44:51;;;;;;;12.43;3.53;;;;;;;18.69;70.01;101724.97;7394171;19;20039;-59
2023/08/13 05:47:18;;;;;;;11.88;3.20;;;;;;;18.81;70.09;101730.22;7393289;19;20030;-58
2023/08/13 05:49:46;;;;;;;11.73;3.42;;;;;;;18.87;69.77;101732.34;7394520;19;20036;-57
2023/08/13 05:52:13;;;;;;;8.98;2.90;;;;;;;18.89;69.44;101739.28;7391804;19;20488;-58
2023/08/13 05:54:41;;;;;;;10.43;3.05;;;;;;;18.83;69.52;101730.94;7393993;19;20029;-58
2023/08/13 05:57:08;;;;;;;10.13;2.90;;;;;;;18.85;69.98;101734.31;7393196;19;20022;-58
2023/08/13 05:59:36;;;;;;;12.25;3.17;;;;;;;18.79;69.95;101734.91;7393812;19;20014;-62
2023/08/13 06:02:03;;;;;;;10.27;3.40;;;;;;;18.73;70.04;101729.13;7390217;19;20043;-58
2023/08/13 06:04:34;;;;;;;10.85;3.10;;;;;;;18.70;69.97;101723.16;7394104;19;20299;-58
2023/08/13 06:07:05;;;;;;;9.93;3.33;;;;;;;18.83;69.37;101726.41;7390856;19;20408;-58
2023/08/13 06:09:33;;;;;;;9.90;2.97;;;;;;;18.83;69.24;101726.41;7392319;19;20094;-56
2023/08/13 06:12:01;;;;;;;9.32;2.90;;;;;;;18.81;69.63;101732.91;7390531;19;20026;-58
2023/08/13 06:14:28;;;;;;;16.52;3.50;;;;;;;18.81;69.77;101735.59;7391720;19;20028;-60
2023/08/13 06:16:56;;;;;;;12.50;3.50;;;;;;;18.90;69.12;101734.75;7393201;19;20037;-58
2023/08/13 06:19:40;;;;;;;11.75;3.00;;;;;;;18.95;69.63;101732.47;7393396;19;20086;-58
2023/08/13 06:22:07;;;;;;;12.43;3.05;;;;;;;18.95;69.16;101730.63;7391868;19;20022;-58
2023/08/13 06:24:34;;;;;;;11.55;3.13;;;;;;;18.98;69.31;101737.56;7392883;19;20018;-58
2023/08/13 06:27:02;;;;;;;13.80;3.33;;;;;;;18.93;69.67;101740.69;7392593;19;20019;-59
2023/08/13 06:29:29;;;;;;;11.30;3.28;;;;;;;19.02;69.41;101752.41;7395755;19;20021;-58
2023/08/13 06:31:57;;;;;;;11.27;3.05;;;;;;;18.99;69.95;101758.03;7391254;19;20540;-58
2023/08/13 06:34:24;;;;;;;10.15;3.28;;;;;;;19.05;69.41;101760.16;7391078;19;20063;-58
2023/08/13 06:36:53;;;;;;;11.70;3.40;;;;;;;19.08;69.34;101754.53;7392127;19;20014;-59
2023/08/13 06:39:21;;;;;;;11.45;3.40;;;;;;;19.12;69.52;101753.25;7392442;19;20019;-54
2023/08/13 06:41:49;;;;;;;12.25;3.17;;;;;;;19.14;69.58;101758.44;7391453;19;20044;-54
2023/08/13 06:44:21;;;;;;;8.80;2.97;;;;;;;19.20;69.19;101760.56;7392276;19;20018;-54
2023/08/13 06:46:48;;;;;;;15.85;3.58;;;;;;;19.26;68.88;101759.97;7391310;19;20036;-57
2023/08/13 06:49:16;;;;;;;11.85;3.10;;;;;;;19.27;69.35;101764.38;7392859;19;20014;-59
2023/08/13 06:51:43;;;;;;;12.02;3.25;;;;;;;19.26;69.27;101764.50;7390800;19;20022;-59
2023/08/13 06:54:11;;;;;;;11.25;2.95;;;;;;;19.24;69.38;101757.44;7391117;19;20040;-58
2023/08/13 06:56:39;;;;;;;12.38;3.22;;;;;;;19.30;69.25;101747.09;7391468;19;20022;-58
2023/08/13 06:59:06;;;;;;;9.65;3.03;;;;;;;19.37;69.65;101759.81;7391675;19;20023;-58
2023/08/13 07:01:33;;;;;;;12.65;3.00;;;;;;;19.42;69.55;101754.00;7391207;19;20047;-58
2023/08/13 07:04:01;;;;;;;10.40;2.90;;;;;;;19.38;69.26;101756.13;7390920;19;20025;-60
2023/08/13 07:06:29;;;;;;;9.75;3.05;;;;;;;19.33;69.57;101749.50;7390843;19;20464;-59
2023/08/13 07:08:56;;;;;;;11.95;3.10;;;;;;;19.36;69.48;101759.97;7391475;19;20017;-59
2023/08/13 07:11:24;;;;;;;10.85;3.28;;;;;;;19.44;69.29;101752.84;7388964;19;20488;-60
2023/08/13 07:13:51;;;;;;;11.40;3.40;;;;;;;19.48;69.21;101753.41;7388710;19;20034;-60
2023/08/13 07:16:19;;;;;;;10.80;3.25;;;;;;;19.55;68.67;101745.63;7390545;19;20023;-59
2023/08/13 07:18:46;;;;;;;9.98;2.70;;;;;;;19.63;68.90;101743.91;7390868;19;20023;-52
2023/08/13 07:21:13;;;;;;;9.35;3.17;;;;;;;19.61;68.38;101736.94;7389080;19;20049;-56
2023/08/13 07:23:41;;;;;;;14.32;3.75;;;;;;;19.60;68.86;101754.06;7390957;19;20043;-59
2023/08/13 07:26:09;;;;;;;11.20;3.00;;;;;;;19.59;68.56;101747.84;7390578;19;20018;-60
2023/08/13 07:28:40;;;;;;;12.23;3.25;;;;;;;19.63;68.87;101757.34;7390141;19;20014;-60
2023/08/13 07:31:07;;;;;;;13.70;3.13;;;;;;;19.69;68.79;101766.69;7390284;19;20492;-60
2023/08/13 07:33:34;;;;;;;9.32;3.28;;;;;;;19.68;68.14;101763.13;7388555;19;20023;-59
2023/08/13 07:36:03;;;;;;;11.57;2.90;;;;;;;19.76;67.83;101774.97;7389797;19;20026;-60
2023/08/13 07:38:30;;;;;;;12.68;3.15;;;;;;;19.77;67.90;101777.53;7389089;19;20774;-60
2023/08/13 07:41:00;;;;;;;11.68;3.03;;;;;;;19.87;67.72;101777.47;7390115;19;20026;-60
2023/08/13 07:43:28;;;;;;;9.40;2.88;;;;;;;19.93;67.44;101766.97;7390842;19;20346;-60
2023/08/13 07:45:55;;;;;;;10.82;2.90;;;;;;;19.91;67.68;101773.50;7388170;19;20358;-60
2023/08/13 07:48:23;;;;;;;11.20;2.78;;;;;;;19.85;67.82;101783.00;7390676;19;20639;-60
2023/08/13 07:50:50;;;;;;;11.20;3.15;;;;;;;19.81;67.18;101783.47;7387806;19;20019;-59
2023/08/13 07:53:18;;;;;;;14.57;3.63;;;;;;;19.77;67.56;101776.69;7389910;19;20378;-59
2023/08/13 07:55:46;;;;;;;10.05;3.20;;;;;;;19.85;67.18;101783.00;7390008;19;20026;-59
2023/08/13 07:58:14;;;;;;;10.25;3.10;;;;;;;19.92;67.34;101777.91;7388597;19;20509;-59
2023/08/13 08:00:41;;;;;;;11.43;3.22;;;;;;;19.90;67.78;101782.56;7390066;19;20027;-59
2023/08/13 08:03:09;;;;;;;13.20;3.13;;;;;;;19.88;67.99;101777.34;7390213;19;20019;-59
2023/08/13 08:05:36;;;;;;;9.38;2.97;;;;;;;19.94;67.73;101770.50;7388802;19;20014;-59
2023/08/13 08:08:04;;;;;;;12.10;3.35;;;;;;;20.03;67.53;101774.13;7390035;19;20022;-57
2023/08/13 08:10:31;;;;;;;10.10;2.90;;;;;;;20.09;67.49;101785.16;7389377;19;20015;-57
2023/08/13 08:12:59;;;;;;;11.65;3.20;;;;;;;20.20;67.91;101792.16;7389399;19;20022;-59
2023/08/13 08:15:26;;;;;;;10.00;3.05;;;;;;;20.21;67.11;101778.56;7389182;19;20018;-61
2023/08/13 08:17:53;;;;;;;9.70;3.05;;;;;;;20.23;67.50;101785.66;7389625;19;20035;-60
2023/08/13 08:20:22;;;;;;;10.52;3.25;;;;;;;20.33;66.90;101773.81;7389683;19;20022;-61
2023/08/13 08:22:49;;;;;;;9.35;3.17;;;;;;;20.36;66.62;101773.50;7389739;19;20018;-61
2023/08/13 08:25:16;;;;;;;9.98;2.88;;;;;;;20.43;67.04;101768.38;7389476;19;20045;-59
2023/08/13 08:27:44;;;;;;;13.43;3.03;;;;;;;20.54;66.82;101772.72;7389193;19;20039;-60
2023/08/13 08:30:12;;;;;;;9.82;3.00;;;;;;;20.52;67.03;101769.31;7397936;19;20022;-60
2023/08/13 08:32:39;;;;;;;11.20;3.00;;;;;;;20.55;66.31;101769.03;7394160;19;20023;-60
2023/08/13 08:35:07;;;;;;;9.75;3.20;;;;;;;20.57;66.09;101758.97;7394172;19;20030;-60
2023/08/13 08:37:34;;;;;;;11.05;3.33;;;;;;;20.62;65.98;101765.56;7396284;19;20022;-60
2023/08/13 08:40:03;;;;;;;9.68;3.40;;;;;;;20.56;66.09;101774.25;7396859;19;20027;-60
2023/08/13 08:42:31;;;;;;;8.38;2.97;;;;;;;20.57;65.81;101765.19;7392352;19;20026;-58
2023/08/13 08:45:02;;;;;;;9.50;2.97;;;;;;;20.52;65.44;101772.03;7396380;19;20082;-58
2023/08/13 08:47:32;;;;;;;10.32;2.83;;;;;;;20.55;65.26;101766.34;7396124;19;20023;-59
2023/08/13 08:50:03;;;;;;;11.10;2.95;;;;;;;20.59;65.51;101768.56;7396183;19;20115;-59
2023/08/13 08:52:33;;;;;;;16.00;3.22;;;;;;;20.54;65.92;101770.03;7393847;19;20039;-58
2023/08/13 08:55:02;;;;;;;8.23;2.70;;;;;;;20.72;66.03;101767.31;7392059;19;20488;-58
2023/08/13 08:57:30;;;;;;;6.65;2.22;;;;;;;20.92;64.19;101768.88;7395122;19;20024;-58
2023/08/13 08:59:58;;;;;;;8.02;2.58;;;;;;;21.15;64.14;101772.75;7396368;19;20018;-58
2023/08/13 09:02:26;;;;;;;10.45;2.38;;;;;;;21.33;63.72;101778.13;7394169;19;20022;-58
2023/08/13 09:04:54;;;;;;;10.63;2.20;;;;;;;21.35;62.93;101775.25;7395344;19;20055;-57
2023/08/13 09:07:28;;;;;;;7.07;2.03;;;;;;;21.32;62.91;101775.53;7393336;19;20563;-59
2023/08/13 09:09:55;;;;;;;6.88;2.20;;;;;;;21.24;62.90;101775.50;7395476;19;20010;-58
2023/08/13 09:12:23;;;;;;;7.40;2.00;;;;;;;21.34;62.91;101770.88;7393402;19;20018;-58
2023/08/13 09:14:54;;;;;;;6.68;2.30;;;;;;;21.47;62.87;101773.16;7394238;19;20068;-58
2023/08/13 09:17:26;;;;;;;6.97;1.90;;;;;;;21.50;63.27;101770.97;7395211;19;20022;-58
2023/08/13 09:19:55;;;;;;;7.70;2.10;;;;;;;21.61;62.30;101776.09;7395089;19;20035;-59
2023/08/13 09:22:23;;;;;;;9.35;1.77;;;;;;;21.72;61.61;101776.84;7393168;19;20018;-60
2023/08/13 09:24:50;;;;;;;7.93;2.10;;;;;;;21.85;61.56;101766.44;7395436;19;20035;-60
2023/08/13 09:27:18;;;;;;;7.57;2.00;;;;;;;21.88;61.26;101766.94;7394115;19;20022;-60
2023/08/13 09:29:53;;;;;;;7.15;1.95;;;;;;;22.01;61.18;101769.19;7398132;19;20022;-60
2023/08/13 09:32:21;;;;;;;7.47;2.13;;;;;;;21.97;61.48;101772.38;7393082;19;20055;-59
2023/08/13 09:34:52;;;;;;;5.88;1.67;;;;;;;21.83;61.51;101771.16;7393552;19;20022;-59
2023/08/13 09:37:23;;;;;;;7.75;1.83;;;;;;;21.85;61.76;101759.19;7393809;19;20019;-59
2023/08/13 09:39:51;;;;;;;6.70;1.63;;;;;;;21.88;60.83;101763.41;7394328;19;20488;-59
2023/08/13 09:42:21;;;;;;;6.38;1.77;;;;;;;21.86;60.89;101760.03;7392826;19;20027;-58
2023/08/13 09:44:51;;;;;;;5.90;1.80;;;;;;;21.82;61.39;101747.88;7394498;19;20014;-59
2023/08/13 09:47:22;;;;;;;7.05;1.63;;;;;;;21.97;60.98;101745.41;7393196;19;20035;-59
2023/08/13 09:49:50;;;;;;;5.45;1.60;;;;;;;22.09;60.15;101744.94;7393460;19;20014;-59
2023/08/13 09:52:22;;;;;;;6.72;1.60;;;;;;;22.33;60.65;101743.34;7392305;19;20026;-59
2023/08/13 09:54:56;;;;;;;5.15;1.52;;;;;;;22.27;59.58;101744.00;7392643;19;20019;-59
2023/08/13 09:57:27;;;;;;;5.57;1.77;;;;;;;22.24;59.81;101738.94;7393708;19;20026;-62
2023/08/13 09:59:55;;;;;;;5.90;1.88;;;;;;;22.22;59.93;101739.09;7393480;19;20083;-59
2023/08/13 10:02:23;;;;;;;9.20;1.63;;;;;;;22.32;59.27;101737.09;7390647;19;20504;-60
2023/08/13 10:04:52;;;;;;;5.93;1.73;;;;;;;22.29;58.90;101734.75;7393963;19;20026;-59
2023/08/13 10:07:20;;;;;;;6.45;1.60;;;;;;;22.22;58.94;101732.88;7392565;19;20036;-59
2023/08/13 10:09:49;;;;;;;4.90;1.80;;;;;;;22.10;59.46;101732.31;7391570;19;20026;-60
2023/08/13 10:12:34;;;;;;;7.88;1.35;;;;;;;22.25;58.82;101736.09;7392142;19;20024;-59
2023/08/13 10:15:01;;;;;;;5.13;1.60;;;;;;;22.23;58.77;101745.34;7391634;19;20018;-60
2023/08/13 10:17:29;;;;;;;8.27;2.10;;;;;;;22.17;58.87;101730.66;7392427;19;20031;-59
2023/08/13 10:19:58;;;;;;;7.60;2.17;;;;;;;22.21;59.52;101726.63;7392938;19;20018;-59
2023/08/13 10:22:37;;;;;;;6.28;1.70;;;;;;;22.44;59.03;101724.13;7390550;19;20011;-59
2023/08/13 10:25:10;;;;;;;6.93;1.75;;;;;;;22.54;58.75;101726.66;7392861;19;20422;-59
2023/08/13 10:27:41;;;;;;;;;;;;;;;22.30;58.11;101731.03;7392998;19;20014;-59
2023/08/13 10:30:12;;;;;;;7.53;2.00;;;;;;;22.20;59.78;101732.16;7395311;19;19919;-58
2023/08/13 10:33:06;;;;;;;4.68;1.40;;;;;;;22.24;59.09;101734.38;7390814;19;20011;-58
2023/08/13 10:35:40;;;;;;;4.07;1.42;;;;;;;22.06;59.90;101730.94;7390011;19;20495;-57
2023/08/13 10:38:07;;;;;;;4.95;1.48;;;;;;;22.13;60.00;101729.25;7392550;19;20401;-59
2023/08/13 10:40:58;;;;;;;5.13;1.42;;;;;;;22.45;59.50;101733.06;7392385;19;20022;-58
2023/08/13 10:43:25;;;;;;;6.80;1.67;;;;;;;22.41;59.25;101721.75;7392525;19;20032;-59
2023/08/13 10:45:54;;;;;;;4.45;1.80;;;;;;;22.63;58.98;101731.91;7391808;19;20309;-59
2023/08/13 10:48:27;;;;;;;4.70;1.23;;;;;;;22.92;57.73;101729.72;7392562;19;20022;-58
2023/08/13 10:50:57;;;;;;;6.18;1.50;;;;;;;22.95;56.53;101727.53;7391995;19;20123;-58
2023/08/13 10:53:27;;;;;;;7.82;1.10;;;;;;;22.91;56.22;101745.09;7389490;19;20039;-59
2023/08/13 10:56:00;;;;;;;3.92;1.10;;;;;;;22.91;56.24;101734.28;7388395;19;20043;-59
2023/08/13 10:58:31;;;;;;;6.22;1.27;;;;;;;23.06;56.30;101729.88;7391874;19;20021;-58
2023/08/13 11:01:09;;;;;;;3.97;1.15;;;;;;;23.02;55.75;101725.84;7392664;19;20415;-58
2023/08/13 11:04:03;;;;;;;4.72;1.38;;;;;;;23.00;55.97;101732.41;7391985;19;20024;-60
2023/08/13 11:06:32;;;;;;;;;;;;;;;22.81;55.98;101737.13;7391498;19;20035;-58
2023/08/13 11:09:00;;;;;;;4.60;1.20;;;;;;;22.77;56.71;101733.06;7391739;19;19919;-59
2023/08/13 11:11:28;;;;;;;4.20;1.83;;;;;;;22.87;56.07;101722.94;7390469;19;20018;-59
2023/08/13 11:13:56;;;;;;;4.20;1.20;;;;;;;23.17;55.11;101727.84;7389938;19;20028;-58
2023/08/13 11:16:27;;;;;;;4.32;1.20;;;;;;;23.39;54.83;101729.84;7390883;19;20073;-58
2023/08/13 11:18:56;;;;;;;3.72;1.10;;;;;;;23.49;53.77;101726.91;7391316;19;20010;-59
2023/08/13 11:21:24;;;;;;;2.90;1.02;;;;;;;23.52;54.06;101732.81;7390347;19;20071;-58
2023/08/13 11:23:52;;;;;;;4.25;1.10;;;;;;;23.57;53.58;101729.59;7391625;19;20018;-59
2023/08/13 11:26:21;;;;;;;4.63;1.10;;;;;;;23.42;53.62;101729.47;7390608;19;20028;-58
2023/08/13 11:28:49;;;;;;;3.03;0.80;;;;;;;23.22;54.18;101722.75;7392196;19;20464;-57
2023/08/13 11:31:16;;;;;;;2.15;0.90;;;;;;;23.14;54.06;101720.09;7389753;19;20018;-57